Summitville, Colorado
Current Conditions -  °F | °C
As of 5:10 PM on Thursday 18 Dec 2014 (Local Time) from KRCV Reporting Station
Overcast Overcast  
Wind Chill: 29°   Ceiling: 6500
Heat Index: 29°   Visibility: 10mi
Dew Point: 21°   Wind: 0mph
Humidity: 72%   Direction: NA
Pressure: 30.08"   Gusts: NA
Location:  37.6359°N, 106.449°W
Report Text: KRCV 190010Z AUTO 00000KT 10SM SCT032 SCT043 OVC065 M02/M06 A3008 RMK AO2 T10171061
Loading
Personal Weather Stations






























Interactive Weather Map New forecast layout! Learn more

10-Day Weather Forecast

Advertisements
Track Severe Weather on mobile